• Join FlightAware (Why Join?)
  • Login
  • US Flag 
10:56PM EDT


 

Airport Tracker/Info


-or-


 

Live Flight TrackerFlight Track Log ✈ N135FL ✈ 01-Sep-2014 ✈ KAPF - KPNS

Flight Track Log - Related Links

Times and Time Zones

All times are in EDT time to prevent confusion due to time zone crossing. See the N135FL flight status page for this flight to view local times or setup timezone preferences in your user account.

Time Position Orientation Groundspeed Altitude Reporting Facility
EDT Latitude Longitude Course Direction KTS MPH feet Rate Location/Type
06:10PM 26.2289 -81.7525 262° West 167 192 2,400  Level Miami Center
06:11PM 26.2294 -81.8047 271° West 167 192 3,400 1,020 Climbing Miami Center
06:12PM 26.2275 -81.8583 268° West 170 196 4,500 1,200 Climbing Miami Center
06:13PM 26.2247 -81.9122 267° West 166 191 5,900 1,140 Climbing Miami Center
06:14PM 26.3576 -82.0174 270° West  Level Estimated
06:14PM 26.2200 -81.9608 264° West 160 184 6,900  Level Miami Center
06:15PM 26.3918 -82.0578 262° West  Level Estimated
06:15PM 26.2156 -82.0200 265° West 176 203 7,900  Level Miami Center
06:16PM 26.2144 -82.0764 269° West 180 207 8,700 840 Climbing Miami Center
06:17PM 26.2133 -82.1383 269° West 186 214 9,700 900 Climbing Miami Center
06:18PM 26.2128 -82.1978 269° West 192 221 10,600 780 Climbing Miami Center
06:19PM 26.2139 -82.2578 271° West 193 222 11,300 540 Climbing Miami Center
06:20PM 26.2156 -82.3275 272° West 207 238 11,800 540 Climbing Miami Center
06:21PM 26.2317 -82.3894 286° West 216 249 12,500 900 Climbing Miami Center
06:22PM 26.2750 -82.4367 316° Northwest 208 239 13,700 1,080 Climbing Miami Center
06:23PM 26.3139 -82.4783 316° Northwest 202 232 14,800 1,020 Climbing Miami Center
06:24PM 26.3547 -82.5222 316° Northwest 192 221 15,900 1,020 Climbing Miami Center
06:25PM 26.3883 -82.5581 316° Northwest 189 217 16,900 960 Climbing Miami Center
06:26PM 26.4247 -82.5981 315° West 187 215 17,900 960 Climbing Miami Center
06:27PM 26.4625 -82.6375 317° Northwest 186 214 18,900 960 Climbing Miami Center
06:28PM 26.5011 -82.6797 316° Northwest 189 217 19,900 1,020 Climbing Miami Center
06:29PM 26.5486 -82.7294 317° Northwest 192 221 21,100 1,020 Climbing Miami Center
06:30PM 26.5889 -82.7731 316° Northwest 199 229 22,100 960 Climbing Miami Center
06:31PM 26.6292 -82.8158 316° Northwest 199 229 23,100 960 Climbing Miami Center
06:32PM 26.6681 -82.8572 316° Northwest 198 228 24,100 900 Climbing Miami Center
06:33PM 26.7061 -82.9006 315° West 196 226 25,000 780 Climbing Miami Center
06:34PM 26.7472 -82.9450 316° Northwest 202 232 25,700 480 Climbing Miami Center
06:35PM 26.7917 -82.9914 317° Northwest 214 246 26,000 120 Climbing Miami Center
06:36PM 26.8389 -83.0439 315° West 232 267 26,000  Level Miami Center
06:37PM 26.9025 -83.1114 317° Northwest 256 295 26,000  Level Miami Center
06:38PM 26.9544 -83.1683 316° Northwest 257 296 26,000  Level Miami Center
06:39PM 27.0083 -83.2256 317° Northwest 262 302 26,000  Level Miami Center
06:41PM 27.0603 -83.2828 316° Northwest 262 302 26,000  Level Miami Center
06:42PM 27.1131 -83.3383 317° Northwest 262 302 26,000  Level Miami Center
06:43PM 27.1653 -83.3964 315° West 262 302 26,000  Level Miami Center
06:44PM 27.2178 -83.4533 316° Northwest 262 302 26,000  Level Miami Center
06:45PM 27.2681 -83.5086 316° Northwest 258 297 26,000  Level Miami Center
06:46PM 27.3197 -83.5656 316° Northwest 258 297 26,000  Level Miami Center
06:47PM 27.3817 -83.6331 316° Northwest 258 297 26,000  Level Miami Center
06:48PM 27.4328 -83.6892 316° Northwest 258 297 26,000  Level Miami Center
06:49PM 27.4836 -83.7453 316° Northwest 258 297 26,000  Level Miami Center
06:50PM 27.5347 -83.8022 315° West 258 297 26,000  Level Miami Center
06:51PM 27.5861 -83.8589 316° Northwest 258 297 26,000  Level Miami Center
06:52PM 27.6375 -83.9156 316° Northwest 258 297 26,000  Level Miami Center
06:53PM 27.6894 -83.9722 316° Northwest 258 297 26,000  Level Miami Center
06:54PM 27.7406 -84.0289 316° Northwest 258 297 26,000  Level Miami Center
06:55PM 27.7914 -84.0867 315° West 258 297 26,000  Level Miami Center
06:56PM 27.8531 -84.1544 316° Northwest 258 297 26,000  Level Miami Center
06:57PM 27.9044 -84.2122 315° West 258 297 26,000  Level Miami Center
06:58PM 27.9558 -84.2692 316° Northwest 258 297 26,000  Level Miami Center
06:59PM 28.0072 -84.3258 316° Northwest 258 297 26,000  Level Miami Center
07:00PM 28.0575 -84.3828 315° West 258 297 26,000  Level Miami Center
07:01PM 28.1125 -84.4447 315° West 258 297 26,000  Level Miami Center
07:02PM 28.1464 -84.4861 313° West 254 292 26,000  Level Jacksonville Center
07:03PM 28.1956 -84.5481 312° West 259 298 26,000  Level Jacksonville Center
07:04PM 28.2492 -84.6008 319° Northwest 259 298 26,000  Level Jacksonville Center
07:05PM 28.3028 -84.6561 318° Northwest 259 298 26,000  Level Jacksonville Center
07:06PM 28.3539 -84.7183 313° West 259 298 26,000  Level Jacksonville Center
07:07PM 28.4053 -84.7758 315° West 259 298 26,000  Level Jacksonville Center
07:08PM 28.4567 -84.8381 313° West 254 292 26,000  Level Jacksonville Center
07:09PM 28.5100 -84.8958 316° Northwest 254 292 26,000  Level Jacksonville Center
07:10PM 28.5633 -84.9489 319° Northwest 254 292 26,000  Level Jacksonville Center
07:11PM 28.6103 -85.0136 310° West 254 292 26,000  Level Jacksonville Center
07:12PM 28.6658 -85.0647 321° Northwest 254 292 26,000  Level Jacksonville Center
07:13PM 28.7147 -85.1294 311° West 254 292 26,000  Level Jacksonville Center
07:14PM 28.7639 -85.1850 315° West 254 292 26,000  Level Jacksonville Center
07:15PM 28.8169 -85.2456 315° West 254 292 26,000  Level Jacksonville Center
07:16PM 28.8681 -85.3014 316° Northwest 249 287 26,000  Level Jacksonville Center
07:17PM 28.9192 -85.3642 313° West 254 292 26,000  Level Jacksonville Center
07:18PM 28.9722 -85.4225 316° Northwest 254 292 26,000  Level Jacksonville Center
07:19PM 29.0233 -85.4808 315° West 254 292 26,000  Level Jacksonville Center
07:20PM 29.0742 -85.5392 315° West 248 285 26,000  Level Jacksonville Center
07:21PM 29.1253 -85.5975 315° West 253 291 26,000  Level Jacksonville Center
07:22PM 29.1761 -85.6583 314° West 253 291 26,000  Level Jacksonville Center
07:23PM 29.2269 -85.7169 315° West 253 291 26,000  Level Jacksonville Center
07:24PM 29.2778 -85.7756 315° West 248 285 26,000  Level Jacksonville Center
07:25PM 29.3289 -85.8319 316° Northwest 253 291 26,000  Level Jacksonville Center
07:26PM 29.3797 -85.8906 315° West 253 291 26,000 -300 Level Jacksonville Center
07:27PM 29.4325 -85.9517 315° West 253 291 25,500 -540 Descending Jacksonville Center
07:28PM 29.4853 -86.0131 315° West 253 291 25,000 -540 Descending Jacksonville Center
07:29PM 29.5378 -86.0767 313° West 264 304 24,500 -600 Descending Jacksonville Center
07:30PM 29.5908 -86.1358 316° Northwest 264 304 23,800 -780 Descending Jacksonville Center
07:31PM 29.6433 -86.1972 315° West 269 310 23,000 -840 Descending Jacksonville Center
07:32PM 29.6919 -86.2564 313° West 269 310 22,200 -840 Descending Jacksonville Center
07:33PM 29.7425 -86.3156 315° West 269 310 21,400 -840 Descending Jacksonville Center
07:34PM 29.7931 -86.3747 315° West 264 304 20,600 -840 Descending Jacksonville Center
07:35PM 29.8436 -86.4339 315° West 259 298 19,800 -900 Descending Jacksonville Center
07:38PM 29.9889 -86.6119 312° West 231 266 16,900 -960 Descending Jacksonville Center
07:39PM 30.0436 -86.6717 317° Northwest 231 266 15,800 -1,020 Descending Jacksonville Center
07:40PM 30.0897 -86.7286 313° West 229 264 14,800 -1,020 Descending Jacksonville Center
07:41PM 30.1408 -86.7642 329° Northwest 227 261 13,800 -1,080 Descending Jacksonville Center
07:42PM 30.1958 -86.8097 324° Northwest 228 262 12,700 -1,020 Descending Jacksonville Center
07:43PM 30.2447 -86.8478 326° Northwest 222 255 11,800 -960 Descending Jacksonville Center
07:44PM 30.2956 -86.8908 324° Northwest 217 250 10,800 -1,140 Descending Jacksonville Center
07:45PM 30.3425 -86.9311 323° Northwest 215 247 9,600 -1,200 Descending Jacksonville Center
07:46PM 30.3933 -86.9694 327° Northwest 210 242 8,400 -1,200 Descending Jacksonville Center
07:47PM 30.4422 -87.0100 324° Northwest 208 239 7,200 -1,260 Descending Jacksonville Center
07:48PM 30.4847 -87.0456 324° Northwest 199 229 5,900 -1,320 Descending Jacksonville Center
07:49PM 30.5339 -87.0814 328° Northwest 192 221 4,600 -1,320 Descending Jacksonville Center
07:50PM 30.5636 -87.1239 309° West 173 199 3,300 -1,260 Descending Jacksonville Center
07:51PM 30.5639 -87.1769 270° West 163 188 2,100 -900 Descending Jacksonville Center
07:52PM 30.5339 -87.2019 216° Southwest 146 168 1,500 -840 Descending Jacksonville Center
07:53PM 30.5006 -87.1981 174° South 126 145 500 -1,140 Descending Jacksonville Center
07:55PM 30.4667 -87.1833 168° South  Level FlightAware Approximate